sensor_id;sensor_type;location;lat;lon;timestamp;temperature;humidity
31271;DHT22;17904;47.420;9.310;2022-11-20T00:01:21;4.90;99.90
31271;DHT22;17904;47.420;9.310;2022-11-20T00:03:48;4.90;99.90
31271;DHT22;17904;47.420;9.310;2022-11-20T00:06:15;4.90;99.90
31271;DHT22;17904;47.420;9.310;2022-11-20T00:08:42;4.90;99.90
31271;DHT22;17904;47.420;9.310;2022-11-20T00:11:13;4.90;99.90
31271;DHT22;17904;47.420;9.310;2022-11-20T00:13:46;4.90;99.90
31271;DHT22;17904;47.420;9.310;2022-11-20T00:16:15;4.90;99.90
31271;DHT22;17904;47.420;9.310;2022-11-20T00:18:42;4.80;99.90
31271;DHT22;17904;47.420;9.310;2022-11-20T00:21:12;4.90;99.90
31271;DHT22;17904;47.420;9.310;2022-11-20T00:23:40;4.80;99.90
31271;DHT22;17904;47.420;9.310;2022-11-20T00:26:10;4.80;99.90
31271;DHT22;17904;47.420;9.310;2022-11-20T00:28:37;4.80;99.90
31271;DHT22;17904;47.420;9.310;2022-11-20T00:31:04;4.80;99.90
31271;DHT22;17904;47.420;9.310;2022-11-20T00:33:32;4.80;99.90
31271;DHT22;17904;47.420;9.310;2022-11-20T00:36:04;4.80;99.90
31271;DHT22;17904;47.420;9.310;2022-11-20T00:38:32;4.80;99.90
31271;DHT22;17904;47.420;9.310;2022-11-20T00:41:04;4.70;99.90
31271;DHT22;17904;47.420;9.310;2022-11-20T00:43:31;4.70;99.90
31271;DHT22;17904;47.420;9.310;2022-11-20T00:48:25;4.70;99.90
31271;DHT22;17904;47.420;9.310;2022-11-20T00:50:52;4.70;99.90
31271;DHT22;17904;47.420;9.310;2022-11-20T00:53:20;4.70;99.90
31271;DHT22;17904;47.420;9.310;2022-11-20T00:55:54;4.60;99.90
31271;DHT22;17904;47.420;9.310;2022-11-20T00:58:22;4.60;99.90
31271;DHT22;17904;47.420;9.310;2022-11-20T01:00:49;4.60;99.90
31271;DHT22;17904;47.420;9.310;2022-11-20T01:03:17;4.60;99.90
31271;DHT22;17904;47.420;9.310;2022-11-20T01:05:52;4.60;99.90
31271;DHT22;17904;47.420;9.310;2022-11-20T01:08:19;4.60;99.90
31271;DHT22;17904;47.420;9.310;2022-11-20T01:10:45;4.60;99.90
31271;DHT22;17904;47.420;9.310;2022-11-20T01:13:12;4.60;99.90
31271;DHT22;17904;47.420;9.310;2022-11-20T01:18:32;4.60;99.90
31271;DHT22;17904;47.420;9.310;2022-11-20T01:21:29;4.60;99.90
31271;DHT22;17904;47.420;9.310;2022-11-20T01:23:53;4.60;99.90
31271;DHT22;17904;47.420;9.310;2022-11-20T01:26:23;4.60;99.90
31271;DHT22;17904;47.420;9.310;2022-11-20T01:28:50;4.60;99.90
31271;DHT22;17904;47.420;9.310;2022-11-20T01:31:22;4.60;99.90
31271;DHT22;17904;47.420;9.310;2022-11-20T01:33:51;4.60;99.90
31271;DHT22;17904;47.420;9.310;2022-11-20T01:36:20;4.60;99.90
31271;DHT22;17904;47.420;9.310;2022-11-20T01:38:48;4.60;99.90
31271;DHT22;17904;47.420;9.310;2022-11-20T01:41:17;4.60;99.90
31271;DHT22;17904;47.420;9.310;2022-11-20T01:44:03;4.60;99.90
31271;DHT22;17904;47.420;9.310;2022-11-20T01:46:32;4.60;99.90
31271;DHT22;17904;47.420;9.310;2022-11-20T01:49:14;4.60;99.90
31271;DHT22;17904;47.420;9.310;2022-11-20T01:51:45;4.50;99.90
31271;DHT22;17904;47.420;9.310;2022-11-20T01:54:18;4.50;99.90
31271;DHT22;17904;47.420;9.310;2022-11-20T01:56:48;4.40;99.90
31271;DHT22;17904;47.420;9.310;2022-11-20T01:59:17;4.40;99.90
31271;DHT22;17904;47.420;9.310;2022-11-20T02:01:45;4.30;99.90
31271;DHT22;17904;47.420;9.310;2022-11-20T02:04:13;4.30;99.90
31271;DHT22;17904;47.420;9.310;2022-11-20T02:06:56;4.20;99.90
31271;DHT22;17904;47.420;9.310;2022-11-20T02:09:25;4.20;99.90
31271;DHT22;17904;47.420;9.310;2022-11-20T02:11:52;4.10;99.90
31271;DHT22;17904;47.420;9.310;2022-11-20T02:14:21;4.00;99.90
31271;DHT22;17904;47.420;9.310;2022-11-20T02:16:49;4.00;99.90
31271;DHT22;17904;47.420;9.310;2022-11-20T02:19:31;3.90;99.90
31271;DHT22;17904;47.420;9.310;2022-11-20T02:22:21;3.80;99.90
31271;DHT22;17904;47.420;9.310;2022-11-20T02:24:52;3.80;99.90
31271;DHT22;17904;47.420;9.310;2022-11-20T02:27:19;3.70;99.90
31271;DHT22;17904;47.420;9.310;2022-11-20T02:29:53;3.70;99.90
31271;DHT22;17904;47.420;9.310;2022-11-20T02:32:24;3.70;99.90
31271;DHT22;17904;47.420;9.310;2022-11-20T02:34:52;3.60;99.90
31271;DHT22;17904;47.420;9.310;2022-11-20T02:37:19;3.60;99.90
31271;DHT22;17904;47.420;9.310;2022-11-20T02:39:49;3.60;99.90
31271;DHT22;17904;47.420;9.310;2022-11-20T02:42:16;3.60;99.90
31271;DHT22;17904;47.420;9.310;2022-11-20T02:44:43;3.60;99.90
31271;DHT22;17904;47.420;9.310;2022-11-20T02:47:10;3.60;99.90
31271;DHT22;17904;47.420;9.310;2022-11-20T02:49:36;3.60;99.90
31271;DHT22;17904;47.420;9.310;2022-11-20T02:52:03;3.60;99.90
31271;DHT22;17904;47.420;9.310;2022-11-20T02:54:30;3.60;99.90
31271;DHT22;17904;47.420;9.310;2022-11-20T02:56:57;3.60;99.90
31271;DHT22;17904;47.420;9.310;2022-11-20T02:59:24;3.60;99.90
31271;DHT22;17904;47.420;9.310;2022-11-20T03:01:50;3.60;99.90
31271;DHT22;17904;47.420;9.310;2022-11-20T03:04:17;3.60;99.90
31271;DHT22;17904;47.420;9.310;2022-11-20T03:06:44;3.70;99.90
31271;DHT22;17904;47.420;9.310;2022-11-20T03:09:10;3.70;99.90
31271;DHT22;17904;47.420;9.310;2022-11-20T03:11:37;3.70;99.90
31271;DHT22;17904;47.420;9.310;2022-11-20T03:14:04;3.70;99.90
31271;DHT22;17904;47.420;9.310;2022-11-20T03:16:31;3.70;99.90
31271;DHT22;17904;47.420;9.310;2022-11-20T03:18:59;3.80;99.90
31271;DHT22;17904;47.420;9.310;2022-11-20T03:21:26;3.80;99.90
31271;DHT22;17904;47.420;9.310;2022-11-20T03:23:53;3.90;99.90
31271;DHT22;17904;47.420;9.310;2022-11-20T03:26:23;3.90;99.90
31271;DHT22;17904;47.420;9.310;2022-11-20T03:28:55;3.90;99.90
31271;DHT22;17904;47.420;9.310;2022-11-20T03:31:25;4.00;99.90
31271;DHT22;17904;47.420;9.310;2022-11-20T03:33:52;4.00;99.90
31271;DHT22;17904;47.420;9.310;2022-11-20T03:36:20;4.00;99.90
31271;DHT22;17904;47.420;9.310;2022-11-20T03:38:47;4.00;99.90
31271;DHT22;17904;47.420;9.310;2022-11-20T03:41:18;4.00;99.90
31271;DHT22;17904;47.420;9.310;2022-11-20T03:43:53;4.00;99.90
31271;DHT22;17904;47.420;9.310;2022-11-20T03:46:21;4.00;99.90
31271;DHT22;17904;47.420;9.310;2022-11-20T03:48:48;4.00;99.90
31271;DHT22;17904;47.420;9.310;2022-11-20T03:51:29;4.00;99.90
31271;DHT22;17904;47.420;9.310;2022-11-20T03:53:58;4.10;99.90
31271;DHT22;17904;47.420;9.310;2022-11-20T03:56:27;4.10;99.90
31271;DHT22;17904;47.420;9.310;2022-11-20T03:58:55;4.20;99.90
31271;DHT22;17904;47.420;9.310;2022-11-20T04:01:28;4.20;99.90
31271;DHT22;17904;47.420;9.310;2022-11-20T04:03:56;4.20;99.90
31271;DHT22;17904;47.420;9.310;2022-11-20T04:06:35;4.20;99.90
31271;DHT22;17904;47.420;9.310;2022-11-20T04:09:02;4.20;99.90
31271;DHT22;17904;47.420;9.310;2022-11-20T04:11:31;4.10;99.90
31271;DHT22;17904;47.420;9.310;2022-11-20T04:14:00;4.10;99.90
31271;DHT22;17904;47.420;9.310;2022-11-20T04:16:30;4.10;99.90
31271;DHT22;17904;47.420;9.310;2022-11-20T04:18:59;4.00;99.90
31271;DHT22;17904;47.420;9.310;2022-11-20T04:21:27;4.00;99.90
31271;DHT22;17904;47.420;9.310;2022-11-20T04:23:54;4.00;99.90
31271;DHT22;17904;47.420;9.310;2022-11-20T04:26:23;3.90;99.90
31271;DHT22;17904;47.420;9.310;2022-11-20T04:28:51;3.80;99.90
31271;DHT22;17904;47.420;9.310;2022-11-20T04:31:20;3.80;99.90
31271;DHT22;17904;47.420;9.310;2022-11-20T04:33:47;3.70;99.90
31271;DHT22;17904;47.420;9.310;2022-11-20T04:36:23;3.70;99.90
31271;DHT22;17904;47.420;9.310;2022-11-20T04:39:01;3.60;99.90
31271;DHT22;17904;47.420;9.310;2022-11-20T04:41:31;3.60;99.90
31271;DHT22;17904;47.420;9.310;2022-11-20T04:44:00;3.50;99.90
31271;DHT22;17904;47.420;9.310;2022-11-20T04:46:31;3.50;99.90
31271;DHT22;17904;47.420;9.310;2022-11-20T04:48:59;3.40;99.90
31271;DHT22;17904;47.420;9.310;2022-11-20T04:51:26;3.40;99.90
31271;DHT22;17904;47.420;9.310;2022-11-20T04:53:53;3.40;99.90
31271;DHT22;17904;47.420;9.310;2022-11-20T04:56:20;3.40;99.90
31271;DHT22;17904;47.420;9.310;2022-11-20T04:58:46;3.40;99.90
31271;DHT22;17904;47.420;9.310;2022-11-20T05:01:17;3.40;99.90
31271;DHT22;17904;47.420;9.310;2022-11-20T05:03:45;3.30;99.90
31271;DHT22;17904;47.420;9.310;2022-11-20T05:06:14;3.40;99.90
31271;DHT22;17904;47.420;9.310;2022-11-20T05:08:41;3.40;99.90
31271;DHT22;17904;47.420;9.310;2022-11-20T05:11:20;3.40;99.90
31271;DHT22;17904;47.420;9.310;2022-11-20T05:13:48;3.40;99.90
31271;DHT22;17904;47.420;9.310;2022-11-20T05:16:23;3.30;99.90
31271;DHT22;17904;47.420;9.310;2022-11-20T05:18:52;3.30;99.90
31271;DHT22;17904;47.420;9.310;2022-11-20T05:21:19;3.30;99.90
31271;DHT22;17904;47.420;9.310;2022-11-20T05:23:46;3.30;99.90
31271;DHT22;17904;47.420;9.310;2022-11-20T05:26:15;3.30;99.90
31271;DHT22;17904;47.420;9.310;2022-11-20T05:28:43;3.20;99.90
31271;DHT22;17904;47.420;9.310;2022-11-20T05:31:12;3.20;99.90
31271;DHT22;17904;47.420;9.310;2022-11-20T05:33:43;3.30;99.90
31271;DHT22;17904;47.420;9.310;2022-11-20T05:36:12;3.20;99.90
31271;DHT22;17904;47.420;9.310;2022-11-20T05:38:40;3.20;99.90
31271;DHT22;17904;47.420;9.310;2022-11-20T05:41:15;3.20;99.90
31271;DHT22;17904;47.420;9.310;2022-11-20T05:43:44;3.20;99.90
31271;DHT22;17904;47.420;9.310;2022-11-20T05:46:14;3.20;99.90
31271;DHT22;17904;47.420;9.310;2022-11-20T05:48:42;3.20;99.90
31271;DHT22;17904;47.420;9.310;2022-11-20T05:51:11;3.20;99.90
31271;DHT22;17904;47.420;9.310;2022-11-20T05:53:38;3.10;99.90
31271;DHT22;17904;47.420;9.310;2022-11-20T05:56:14;3.20;99.90
31271;DHT22;17904;47.420;9.310;2022-11-20T05:58:41;3.10;99.90
31271;DHT22;17904;47.420;9.310;2022-11-20T06:01:12;3.10;99.90
31271;DHT22;17904;47.420;9.310;2022-11-20T06:03:40;3.10;99.90
31271;DHT22;17904;47.420;9.310;2022-11-20T06:06:07;3.10;99.90
31271;DHT22;17904;47.420;9.310;2022-11-20T06:08:33;3.10;99.90
31271;DHT22;17904;47.420;9.310;2022-11-20T06:11:08;3.10;99.90
31271;DHT22;17904;47.420;9.310;2022-11-20T06:13:35;3.10;99.90
31271;DHT22;17904;47.420;9.310;2022-11-20T06:16:08;3.10;99.90
31271;DHT22;17904;47.420;9.310;2022-11-20T06:18:35;3.10;99.90
31271;DHT22;17904;47.420;9.310;2022-11-20T06:21:13;3.10;99.90
31271;DHT22;17904;47.420;9.310;2022-11-20T06:23:41;3.10;99.90
31271;DHT22;17904;47.420;9.310;2022-11-20T06:26:10;3.10;99.90
31271;DHT22;17904;47.420;9.310;2022-11-20T06:28:37;3.20;99.90
31271;DHT22;17904;47.420;9.310;2022-11-20T06:31:05;3.20;99.90
31271;DHT22;17904;47.420;9.310;2022-11-20T06:33:32;3.20;99.90
31271;DHT22;17904;47.420;9.310;2022-11-20T06:36:00;3.20;99.90
31271;DHT22;17904;47.420;9.310;2022-11-20T06:38:33;3.20;99.90
31271;DHT22;17904;47.420;9.310;2022-11-20T06:40:59;3.20;99.90
31271;DHT22;17904;47.420;9.310;2022-11-20T06:43:28;3.30;99.90
31271;DHT22;17904;47.420;9.310;2022-11-20T06:45:56;3.30;99.90
31271;DHT22;17904;47.420;9.310;2022-11-20T06:48:23;3.30;99.90
31271;DHT22;17904;47.420;9.310;2022-11-20T06:50:51;3.30;99.90
31271;DHT22;17904;47.420;9.310;2022-11-20T06:53:17;3.40;99.90
31271;DHT22;17904;47.420;9.310;2022-11-20T06:55:45;3.40;99.90
31271;DHT22;17904;47.420;9.310;2022-11-20T06:58:13;3.40;99.90
31271;DHT22;17904;47.420;9.310;2022-11-20T07:00:40;3.40;99.90
31271;DHT22;17904;47.420;9.310;2022-11-20T07:03:09;3.40;99.90
31271;DHT22;17904;47.420;9.310;2022-11-20T07:05:37;3.40;99.90
31271;DHT22;17904;47.420;9.310;2022-11-20T07:08:05;3.50;99.90
31271;DHT22;17904;47.420;9.310;2022-11-20T07:10:32;3.50;99.90
31271;DHT22;17904;47.420;9.310;2022-11-20T07:12:59;3.50;99.90
31271;DHT22;17904;47.420;9.310;2022-11-20T07:15:26;3.60;99.90
31271;DHT22;17904;47.420;9.310;2022-11-20T07:17:53;3.70;99.90
31271;DHT22;17904;47.420;9.310;2022-11-20T07:20:19;3.70;99.90
31271;DHT22;17904;47.420;9.310;2022-11-20T07:22:46;3.70;99.90
31271;DHT22;17904;47.420;9.310;2022-11-20T07:25:12;3.80;99.90
31271;DHT22;17904;47.420;9.310;2022-11-20T07:27:39;3.80;99.90
31271;DHT22;17904;47.420;9.310;2022-11-20T07:30:06;3.80;99.90
31271;DHT22;17904;47.420;9.310;2022-11-20T07:32:33;3.90;99.90
31271;DHT22;17904;47.420;9.310;2022-11-20T07:35:00;4.00;99.90
31271;DHT22;17904;47.420;9.310;2022-11-20T07:37:26;4.00;99.90
31271;DHT22;17904;47.420;9.310;2022-11-20T07:39:53;4.10;99.90
31271;DHT22;17904;47.420;9.310;2022-11-20T07:42:20;4.20;99.90
31271;DHT22;17904;47.420;9.310;2022-11-20T07:44:50;4.20;99.90
31271;DHT22;17904;47.420;9.310;2022-11-20T07:47:16;4.30;99.90
31271;DHT22;17904;47.420;9.310;2022-11-20T07:49:44;4.30;99.90
31271;DHT22;17904;47.420;9.310;2022-11-20T07:52:11;4.40;99.90
31271;DHT22;17904;47.420;9.310;2022-11-20T07:54:37;4.50;99.90
31271;DHT22;17904;47.420;9.310;2022-11-20T07:57:04;4.60;99.90
31271;DHT22;17904;47.420;9.310;2022-11-20T07:59:31;4.60;99.90
31271;DHT22;17904;47.420;9.310;2022-11-20T08:01:57;4.70;99.90
31271;DHT22;17904;47.420;9.310;2022-11-20T08:04:24;4.90;99.90
31271;DHT22;17904;47.420;9.310;2022-11-20T08:06:54;5.00;99.90
31271;DHT22;17904;47.420;9.310;2022-11-20T08:09:21;5.20;99.90
31271;DHT22;17904;47.420;9.310;2022-11-20T08:11:48;5.40;99.90
31271;DHT22;17904;47.420;9.310;2022-11-20T08:14:33;5.40;99.90
31271;DHT22;17904;47.420;9.310;2022-11-20T08:17:00;5.50;99.90
31271;DHT22;17904;47.420;9.310;2022-11-20T08:19:26;5.60;99.90
31271;DHT22;17904;47.420;9.310;2022-11-20T08:21:54;5.60;99.90
31271;DHT22;17904;47.420;9.310;2022-11-20T08:24:21;5.70;99.90
31271;DHT22;17904;47.420;9.310;2022-11-20T08:26:48;5.70;99.90
31271;DHT22;17904;47.420;9.310;2022-11-20T08:29:14;5.70;99.90
31271;DHT22;17904;47.420;9.310;2022-11-20T08:31:41;5.70;99.90
31271;DHT22;17904;47.420;9.310;2022-11-20T08:34:08;5.70;99.90
31271;DHT22;17904;47.420;9.310;2022-11-20T08:36:36;5.70;99.90
31271;DHT22;17904;47.420;9.310;2022-11-20T08:39:03;5.70;99.90
31271;DHT22;17904;47.420;9.310;2022-11-20T08:41:30;5.80;99.90
31271;DHT22;17904;47.420;9.310;2022-11-20T08:44:01;6.20;99.90
31271;DHT22;17904;47.420;9.310;2022-11-20T08:46:35;6.70;99.90
31271;DHT22;17904;47.420;9.310;2022-11-20T08:49:05;7.20;99.90
31271;DHT22;17904;47.420;9.310;2022-11-20T08:51:32;7.80;99.90
31271;DHT22;17904;47.420;9.310;2022-11-20T08:53:59;8.10;99.90
31271;DHT22;17904;47.420;9.310;2022-11-20T08:56:26;8.10;99.90
31271;DHT22;17904;47.420;9.310;2022-11-20T08:58:53;8.10;99.90
31271;DHT22;17904;47.420;9.310;2022-11-20T09:01:40;8.00;99.90
31271;DHT22;17904;47.420;9.310;2022-11-20T09:04:07;7.70;99.90
31271;DHT22;17904;47.420;9.310;2022-11-20T09:06:33;7.50;99.90
31271;DHT22;17904;47.420;9.310;2022-11-20T09:09:00;7.30;99.90
31271;DHT22;17904;47.420;9.310;2022-11-20T09:11:32;7.20;99.90
31271;DHT22;17904;47.420;9.310;2022-11-20T09:13:59;7.20;99.90
31271;DHT22;17904;47.420;9.310;2022-11-20T09:16:26;7.50;99.90
31271;DHT22;17904;47.420;9.310;2022-11-20T09:18:53;8.00;99.90
31271;DHT22;17904;47.420;9.310;2022-11-20T09:21:39;8.40;99.90
31271;DHT22;17904;47.420;9.310;2022-11-20T09:24:06;8.90;99.90
31271;DHT22;17904;47.420;9.310;2022-11-20T09:26:33;9.30;99.90
31271;DHT22;17904;47.420;9.310;2022-11-20T09:29:00;9.60;99.90
31271;DHT22;17904;47.420;9.310;2022-11-20T09:31:26;9.90;99.90
31271;DHT22;17904;47.420;9.310;2022-11-20T09:33:53;10.20;99.90
31271;DHT22;17904;47.420;9.310;2022-11-20T09:36:20;10.20;99.90
31271;DHT22;17904;47.420;9.310;2022-11-20T09:38:47;10.00;99.90
31271;DHT22;17904;47.420;9.310;2022-11-20T09:44:35;9.30;99.90
31271;DHT22;17904;47.420;9.310;2022-11-20T09:47:13;9.10;99.90
31271;DHT22;17904;47.420;9.310;2022-11-20T09:52:48;9.00;99.90
31271;DHT22;17904;47.420;9.310;2022-11-20T09:55:17;9.30;99.90
31271;DHT22;17904;47.420;9.310;2022-11-20T09:57:47;9.60;99.90
31271;DHT22;17904;47.420;9.310;2022-11-20T10:00:15;9.60;99.90
31271;DHT22;17904;47.420;9.310;2022-11-20T10:05:39;9.10;99.90
31271;DHT22;17904;47.420;9.310;2022-11-20T10:08:21;8.80;99.90
31271;DHT22;17904;47.420;9.310;2022-11-20T10:21:30;7.70;99.90
31271;DHT22;17904;47.420;9.310;2022-11-20T10:30:12;7.40;99.90
31271;DHT22;17904;47.420;9.310;2022-11-20T10:32:47;7.40;99.90
31271;DHT22;17904;47.420;9.310;2022-11-20T10:35:28;7.30;99.90
31271;DHT22;17904;47.420;9.310;2022-11-20T10:38:00;7.20;99.90
31271;DHT22;17904;47.420;9.310;2022-11-20T10:40:45;7.20;99.90
31271;DHT22;17904;47.420;9.310;2022-11-20T10:43:32;7.00;99.90
31271;DHT22;17904;47.420;9.310;2022-11-20T10:46:03;6.90;99.90
31271;DHT22;17904;47.420;9.310;2022-11-20T10:48:31;6.80;99.90
31271;DHT22;17904;47.420;9.310;2022-11-20T10:53:47;7.10;99.90
31271;DHT22;17904;47.420;9.310;2022-11-20T11:02:00;8.70;99.90
31271;DHT22;17904;47.420;9.310;2022-11-20T11:04:37;9.10;99.90
31271;DHT22;17904;47.420;9.310;2022-11-20T11:07:26;9.30;99.90
31271;DHT22;17904;47.420;9.310;2022-11-20T11:09:54;9.30;99.90
31271;DHT22;17904;47.420;9.310;2022-11-20T11:12:25;9.10;99.90
31271;DHT22;17904;47.420;9.310;2022-11-20T11:14:54;8.90;99.90
31271;DHT22;17904;47.420;9.310;2022-11-20T11:17:33;8.70;99.90
31271;DHT22;17904;47.420;9.310;2022-11-20T11:20:15;8.60;99.90
31271;DHT22;17904;47.420;9.310;2022-11-20T11:22:51;8.40;99.90
31271;DHT22;17904;47.420;9.310;2022-11-20T11:25:21;8.20;99.90
31271;DHT22;17904;47.420;9.310;2022-11-20T11:27:50;8.10;99.90
31271;DHT22;17904;47.420;9.310;2022-11-20T11:30:19;8.00;99.90
31271;DHT22;17904;47.420;9.310;2022-11-20T11:32:46;8.00;99.90
31271;DHT22;17904;47.420;9.310;2022-11-20T11:35:25;7.90;99.90
31271;DHT22;17904;47.420;9.310;2022-11-20T11:38:06;7.80;99.90
31271;DHT22;17904;47.420;9.310;2022-11-20T11:40:35;7.70;99.90
31271;DHT22;17904;47.420;9.310;2022-11-20T11:43:05;7.60;99.90
31271;DHT22;17904;47.420;9.310;2022-11-20T11:45:54;7.60;99.90
31271;DHT22;17904;47.420;9.310;2022-11-20T11:48:22;7.60;99.90
31271;DHT22;17904;47.420;9.310;2022-11-20T11:50:49;7.60;99.90
31271;DHT22;17904;47.420;9.310;2022-11-20T11:53:22;7.50;99.90
31271;DHT22;17904;47.420;9.310;2022-11-20T11:56:02;7.50;99.90
31271;DHT22;17904;47.420;9.310;2022-11-20T11:58:51;7.50;99.90
31271;DHT22;17904;47.420;9.310;2022-11-20T12:01:45;7.40;99.90
31271;DHT22;17904;47.420;9.310;2022-11-20T12:04:48;7.40;99.90
31271;DHT22;17904;47.420;9.310;2022-11-20T12:07:27;7.50;99.90
31271;DHT22;17904;47.420;9.310;2022-11-20T12:10:33;7.40;99.90
31271;DHT22;17904;47.420;9.310;2022-11-20T12:13:09;7.40;99.90
31271;DHT22;17904;47.420;9.310;2022-11-20T12:15:44;7.30;99.90
31271;DHT22;17904;47.420;9.310;2022-11-20T12:18:18;7.30;99.90
31271;DHT22;17904;47.420;9.310;2022-11-20T12:21:12;7.30;99.90
31271;DHT22;17904;47.420;9.310;2022-11-20T12:23:53;7.20;99.90
31271;DHT22;17904;47.420;9.310;2022-11-20T12:37:24;8.20;99.90
31271;DHT22;17904;47.420;9.310;2022-11-20T12:39:55;8.30;99.90
31271;DHT22;17904;47.420;9.310;2022-11-20T12:42:45;8.20;99.90
31271;DHT22;17904;47.420;9.310;2022-11-20T13:02:26;8.30;99.90
31271;DHT22;17904;47.420;9.310;2022-11-20T13:07:40;8.30;99.90
31271;DHT22;17904;47.420;9.310;2022-11-20T13:16:06;8.10;99.90
31271;DHT22;17904;47.420;9.310;2022-11-20T13:18:40;7.90;99.90
31271;DHT22;17904;47.420;9.310;2022-11-20T13:21:34;7.80;99.90
31271;DHT22;17904;47.420;9.310;2022-11-20T13:24:29;7.80;99.90
31271;DHT22;17904;47.420;9.310;2022-11-20T13:29:45;8.00;99.90
31271;DHT22;17904;47.420;9.310;2022-11-20T13:32:19;8.20;99.90
31271;DHT22;17904;47.420;9.310;2022-11-20T13:34:58;8.50;99.90
31271;DHT22;17904;47.420;9.310;2022-11-20T13:37:35;8.70;99.90
31271;DHT22;17904;47.420;9.310;2022-11-20T13:42:40;9.20;99.90
31271;DHT22;17904;47.420;9.310;2022-11-20T13:45:24;9.40;99.90
31271;DHT22;17904;47.420;9.310;2022-11-20T13:47:52;9.60;99.90
31271;DHT22;17904;47.420;9.310;2022-11-20T13:50:28;9.80;99.50
31271;DHT22;17904;47.420;9.310;2022-11-20T13:56:14;10.00;94.80
31271;DHT22;17904;47.420;9.310;2022-11-20T13:58:55;10.00;94.90
31271;DHT22;17904;47.420;9.310;2022-11-20T14:01:31;10.10;95.00
31271;DHT22;17904;47.420;9.310;2022-11-20T14:03:59;10.20;93.60
31271;DHT22;17904;47.420;9.310;2022-11-20T14:06:40;10.10;95.00
31271;DHT22;17904;47.420;9.310;2022-11-20T14:09:13;10.20;94.20
31271;DHT22;17904;47.420;9.310;2022-11-20T14:11:46;10.20;94.30
31271;DHT22;17904;47.420;9.310;2022-11-20T14:16:46;10.10;92.80
31271;DHT22;17904;47.420;9.310;2022-11-20T14:21:53;9.80;95.50
31271;DHT22;17904;47.420;9.310;2022-11-20T14:24:22;9.70;96.10
31271;DHT22;17904;47.420;9.310;2022-11-20T14:26:50;9.60;97.00
31271;DHT22;17904;47.420;9.310;2022-11-20T14:29:20;9.50;99.30
31271;DHT22;17904;47.420;9.310;2022-11-20T14:31:48;9.30;99.90
31271;DHT22;17904;47.420;9.310;2022-11-20T14:34:28;9.10;99.90
31271;DHT22;17904;47.420;9.310;2022-11-20T14:37:01;8.80;99.90
31271;DHT22;17904;47.420;9.310;2022-11-20T14:39:33;8.60;99.90
31271;DHT22;17904;47.420;9.310;2022-11-20T14:42:00;8.30;99.90
31271;DHT22;17904;47.420;9.310;2022-11-20T14:44:29;8.00;99.90
31271;DHT22;17904;47.420;9.310;2022-11-20T14:46:57;7.80;99.90
31271;DHT22;17904;47.420;9.310;2022-11-20T14:49:25;7.60;99.90
31271;DHT22;17904;47.420;9.310;2022-11-20T14:52:09;7.40;99.90
31271;DHT22;17904;47.420;9.310;2022-11-20T14:54:45;7.20;99.90
31271;DHT22;17904;47.420;9.310;2022-11-20T14:57:32;7.00;99.90
31271;DHT22;17904;47.420;9.310;2022-11-20T15:02:42;6.70;99.90
31271;DHT22;17904;47.420;9.310;2022-11-20T15:05:09;6.50;99.90
31271;DHT22;17904;47.420;9.310;2022-11-20T15:07:41;6.40;99.90
31271;DHT22;17904;47.420;9.310;2022-11-20T15:10:20;6.20;99.90
31271;DHT22;17904;47.420;9.310;2022-11-20T15:15:21;5.90;99.90
31271;DHT22;17904;47.420;9.310;2022-11-20T15:17:47;5.90;99.90
31271;DHT22;17904;47.420;9.310;2022-11-20T15:20:16;5.70;99.90
31271;DHT22;17904;47.420;9.310;2022-11-20T15:22:43;5.60;99.90
31271;DHT22;17904;47.420;9.310;2022-11-20T15:25:17;5.50;99.90
31271;DHT22;17904;47.420;9.310;2022-11-20T15:27:45;5.50;99.90
31271;DHT22;17904;47.420;9.310;2022-11-20T15:30:15;5.30;99.90
31271;DHT22;17904;47.420;9.310;2022-11-20T15:32:44;5.20;99.90
31271;DHT22;17904;47.420;9.310;2022-11-20T15:35:11;5.10;99.90
31271;DHT22;17904;47.420;9.310;2022-11-20T15:37:39;5.00;99.90
31271;DHT22;17904;47.420;9.310;2022-11-20T15:40:06;4.90;99.90
31271;DHT22;17904;47.420;9.310;2022-11-20T15:42:34;4.80;99.90
31271;DHT22;17904;47.420;9.310;2022-11-20T15:45:01;4.80;99.90
31271;DHT22;17904;47.420;9.310;2022-11-20T15:47:31;4.70;99.90
31271;DHT22;17904;47.420;9.310;2022-11-20T15:49:59;4.70;99.90
31271;DHT22;17904;47.420;9.310;2022-11-20T15:52:26;4.60;99.90
31271;DHT22;17904;47.420;9.310;2022-11-20T15:55:04;4.60;99.90
31271;DHT22;17904;47.420;9.310;2022-11-20T15:57:36;4.50;99.90
31271;DHT22;17904;47.420;9.310;2022-11-20T16:00:03;4.50;99.90
31271;DHT22;17904;47.420;9.310;2022-11-20T16:02:36;4.40;99.90
31271;DHT22;17904;47.420;9.310;2022-11-20T16:05:03;4.40;99.90
31271;DHT22;17904;47.420;9.310;2022-11-20T16:07:30;4.30;99.90
31271;DHT22;17904;47.420;9.310;2022-11-20T16:09:56;4.30;99.90
31271;DHT22;17904;47.420;9.310;2022-11-20T16:12:23;4.30;99.90
31271;DHT22;17904;47.420;9.310;2022-11-20T16:15:09;4.30;99.90
31271;DHT22;17904;47.420;9.310;2022-11-20T16:17:54;4.30;99.90
31271;DHT22;17904;47.420;9.310;2022-11-20T16:20:21;4.30;99.90
31271;DHT22;17904;47.420;9.310;2022-11-20T16:22:47;4.30;99.90
31271;DHT22;17904;47.420;9.310;2022-11-20T16:25:14;4.30;99.90
31271;DHT22;17904;47.420;9.310;2022-11-20T16:27:41;4.30;99.90
31271;DHT22;17904;47.420;9.310;2022-11-20T16:30:08;4.30;99.90
31271;DHT22;17904;47.420;9.310;2022-11-20T16:32:35;4.30;99.90
31271;DHT22;17904;47.420;9.310;2022-11-20T16:35:02;4.30;99.90
31271;DHT22;17904;47.420;9.310;2022-11-20T16:37:29;4.30;99.90
31271;DHT22;17904;47.420;9.310;2022-11-20T16:39:56;4.30;99.90
31271;DHT22;17904;47.420;9.310;2022-11-20T16:42:23;4.30;99.90
31271;DHT22;17904;47.420;9.310;2022-11-20T16:44:49;4.30;99.90
31271;DHT22;17904;47.420;9.310;2022-11-20T16:47:16;4.30;99.90
31271;DHT22;17904;47.420;9.310;2022-11-20T16:49:43;4.30;99.90
31271;DHT22;17904;47.420;9.310;2022-11-20T16:52:09;4.30;99.90
31271;DHT22;17904;47.420;9.310;2022-11-20T16:54:36;4.30;99.90
31271;DHT22;17904;47.420;9.310;2022-11-20T16:57:03;4.30;99.90
31271;DHT22;17904;47.420;9.310;2022-11-20T16:59:29;4.30;99.90
31271;DHT22;17904;47.420;9.310;2022-11-20T17:01:56;4.30;99.90
31271;DHT22;17904;47.420;9.310;2022-11-20T17:04:23;4.30;99.90
31271;DHT22;17904;47.420;9.310;2022-11-20T17:06:50;4.30;99.90
31271;DHT22;17904;47.420;9.310;2022-11-20T17:09:17;4.30;99.90
31271;DHT22;17904;47.420;9.310;2022-11-20T17:11:44;4.20;99.90
31271;DHT22;17904;47.420;9.310;2022-11-20T17:14:10;4.20;99.90
31271;DHT22;17904;47.420;9.310;2022-11-20T17:16:38;4.20;99.90
31271;DHT22;17904;47.420;9.310;2022-11-20T17:19:05;4.20;99.90
31271;DHT22;17904;47.420;9.310;2022-11-20T17:21:32;4.20;99.90
31271;DHT22;17904;47.420;9.310;2022-11-20T17:24:04;4.20;99.90
31271;DHT22;17904;47.420;9.310;2022-11-20T17:26:32;4.20;99.90
31271;DHT22;17904;47.420;9.310;2022-11-20T17:29:01;4.10;99.90
31271;DHT22;17904;47.420;9.310;2022-11-20T17:31:30;4.10;99.90
31271;DHT22;17904;47.420;9.310;2022-11-20T17:33:58;4.10;99.90
31271;DHT22;17904;47.420;9.310;2022-11-20T17:36:28;4.00;99.90
31271;DHT22;17904;47.420;9.310;2022-11-20T17:38:56;4.00;99.90
31271;DHT22;17904;47.420;9.310;2022-11-20T17:41:25;4.00;99.90